sensor_id;sensor_type;location;lat;lon;timestamp;pressure;altitude;pressure_sealevel;temperature
56286;BMP180;42191;47.562;9.686;2023-05-07T00:00:11;96723.00;;;20.00
56286;BMP180;42191;47.562;9.686;2023-05-07T00:02:41;96716.00;;;20.00
56286;BMP180;42191;47.562;9.686;2023-05-07T00:05:07;96718.00;;;20.00
56286;BMP180;42191;47.562;9.686;2023-05-07T00:07:34;96720.00;;;20.00
56286;BMP180;42191;47.562;9.686;2023-05-07T00:10:00;96721.00;;;19.90
56286;BMP180;42191;47.562;9.686;2023-05-07T00:12:26;96721.00;;;19.90
56286;BMP180;42191;47.562;9.686;2023-05-07T00:14:52;96717.00;;;19.90
56286;BMP180;42191;47.562;9.686;2023-05-07T00:17:18;96720.00;;;19.90
56286;BMP180;42191;47.562;9.686;2023-05-07T00:19:44;96719.00;;;19.90
56286;BMP180;42191;47.562;9.686;2023-05-07T00:22:10;96713.00;;;19.90
56286;BMP180;42191;47.562;9.686;2023-05-07T00:24:37;96717.00;;;19.90
56286;BMP180;42191;47.562;9.686;2023-05-07T00:27:03;96709.00;;;19.90
56286;BMP180;42191;47.562;9.686;2023-05-07T00:29:29;96718.00;;;19.90
56286;BMP180;42191;47.562;9.686;2023-05-07T00:31:55;96714.00;;;19.90
56286;BMP180;42191;47.562;9.686;2023-05-07T00:34:21;96706.00;;;19.90
56286;BMP180;42191;47.562;9.686;2023-05-07T00:36:48;96714.00;;;19.90
56286;BMP180;42191;47.562;9.686;2023-05-07T00:39:14;96710.00;;;19.90
56286;BMP180;42191;47.562;9.686;2023-05-07T00:41:40;96707.00;;;19.90
56286;BMP180;42191;47.562;9.686;2023-05-07T00:44:06;96711.00;;;19.90
56286;BMP180;42191;47.562;9.686;2023-05-07T00:46:33;96712.00;;;19.90
56286;BMP180;42191;47.562;9.686;2023-05-07T00:49:00;96712.00;;;19.90
56286;BMP180;42191;47.562;9.686;2023-05-07T00:51:27;96716.00;;;19.90
56286;BMP180;42191;47.562;9.686;2023-05-07T00:53:54;96713.00;;;19.90
56286;BMP180;42191;47.562;9.686;2023-05-07T00:56:21;96705.00;;;19.90
56286;BMP180;42191;47.562;9.686;2023-05-07T00:58:49;96712.00;;;19.90
56286;BMP180;42191;47.562;9.686;2023-05-07T01:01:15;96701.00;;;19.90
56286;BMP180;42191;47.562;9.686;2023-05-07T01:03:42;96701.00;;;19.90
56286;BMP180;42191;47.562;9.686;2023-05-07T01:06:09;96696.00;;;19.90
56286;BMP180;42191;47.562;9.686;2023-05-07T01:08:38;96696.00;;;19.80
56286;BMP180;42191;47.562;9.686;2023-05-07T01:11:06;96689.00;;;19.80
56286;BMP180;42191;47.562;9.686;2023-05-07T01:13:33;96696.00;;;19.80
56286;BMP180;42191;47.562;9.686;2023-05-07T01:15:59;96692.00;;;19.80
56286;BMP180;42191;47.562;9.686;2023-05-07T01:18:26;96689.00;;;19.80
56286;BMP180;42191;47.562;9.686;2023-05-07T01:20:52;96698.00;;;19.80
56286;BMP180;42191;47.562;9.686;2023-05-07T01:23:20;96695.00;;;19.80
56286;BMP180;42191;47.562;9.686;2023-05-07T01:25:53;96695.00;;;19.80
56286;BMP180;42191;47.562;9.686;2023-05-07T01:28:20;96691.00;;;19.80
56286;BMP180;42191;47.562;9.686;2023-05-07T01:30:54;96695.00;;;19.70
56286;BMP180;42191;47.562;9.686;2023-05-07T01:33:22;96696.00;;;19.70
56286;BMP180;42191;47.562;9.686;2023-05-07T01:35:51;96688.00;;;19.70
56286;BMP180;42191;47.562;9.686;2023-05-07T01:38:18;96688.00;;;19.70
56286;BMP180;42191;47.562;9.686;2023-05-07T01:40:45;96688.00;;;19.70
56286;BMP180;42191;47.562;9.686;2023-05-07T01:43:12;96698.00;;;19.70
56286;BMP180;42191;47.562;9.686;2023-05-07T01:45:38;96695.00;;;19.60
56286;BMP180;42191;47.562;9.686;2023-05-07T01:48:07;96691.00;;;19.60
56286;BMP180;42191;47.562;9.686;2023-05-07T01:50:33;96696.00;;;19.60
56286;BMP180;42191;47.562;9.686;2023-05-07T01:52:59;96685.00;;;19.60
56286;BMP180;42191;47.562;9.686;2023-05-07T01:55:26;96696.00;;;19.60
56286;BMP180;42191;47.562;9.686;2023-05-07T01:57:53;96698.00;;;19.60
56286;BMP180;42191;47.562;9.686;2023-05-07T02:00:19;96691.00;;;19.60
56286;BMP180;42191;47.562;9.686;2023-05-07T02:02:45;96694.00;;;19.60
56286;BMP180;42191;47.562;9.686;2023-05-07T02:05:12;96693.00;;;19.50
56286;BMP180;42191;47.562;9.686;2023-05-07T02:07:38;96702.00;;;19.50
56286;BMP180;42191;47.562;9.686;2023-05-07T02:10:04;96697.00;;;19.50
56286;BMP180;42191;47.562;9.686;2023-05-07T02:12:31;96705.00;;;19.50
56286;BMP180;42191;47.562;9.686;2023-05-07T02:14:57;96701.00;;;19.40
56286;BMP180;42191;47.562;9.686;2023-05-07T02:17:23;96698.00;;;19.40
56286;BMP180;42191;47.562;9.686;2023-05-07T02:19:49;96701.00;;;19.40
56286;BMP180;42191;47.562;9.686;2023-05-07T02:22:15;96700.00;;;19.40
56286;BMP180;42191;47.562;9.686;2023-05-07T02:24:41;96696.00;;;19.30
56286;BMP180;42191;47.562;9.686;2023-05-07T02:27:07;96704.00;;;19.40
56286;BMP180;42191;47.562;9.686;2023-05-07T02:29:34;96701.00;;;19.30
56286;BMP180;42191;47.562;9.686;2023-05-07T02:32:00;96705.00;;;19.30
56286;BMP180;42191;47.562;9.686;2023-05-07T02:34:26;96703.00;;;19.30
56286;BMP180;42191;47.562;9.686;2023-05-07T02:36:52;96701.00;;;19.30
56286;BMP180;42191;47.562;9.686;2023-05-07T02:39:18;96715.00;;;19.30
56286;BMP180;42191;47.562;9.686;2023-05-07T02:41:44;96700.00;;;19.30
56286;BMP180;42191;47.562;9.686;2023-05-07T02:44:10;96708.00;;;19.20
56286;BMP180;42191;47.562;9.686;2023-05-07T02:46:37;96701.00;;;19.20
56286;BMP180;42191;47.562;9.686;2023-05-07T02:49:03;96696.00;;;19.20
56286;BMP180;42191;47.562;9.686;2023-05-07T02:51:30;96698.00;;;19.10
56286;BMP180;42191;47.562;9.686;2023-05-07T02:53:56;96710.00;;;19.10
56286;BMP180;42191;47.562;9.686;2023-05-07T02:56:25;96714.00;;;19.10
56286;BMP180;42191;47.562;9.686;2023-05-07T02:58:51;96714.00;;;19.00
56286;BMP180;42191;47.562;9.686;2023-05-07T03:01:17;96707.00;;;19.00
56286;BMP180;42191;47.562;9.686;2023-05-07T03:03:43;96705.00;;;19.00
56286;BMP180;42191;47.562;9.686;2023-05-07T03:06:09;96708.00;;;18.90
56286;BMP180;42191;47.562;9.686;2023-05-07T03:08:36;96707.00;;;18.90
56286;BMP180;42191;47.562;9.686;2023-05-07T03:11:02;96705.00;;;18.90
56286;BMP180;42191;47.562;9.686;2023-05-07T03:13:28;96690.00;;;18.80
56286;BMP180;42191;47.562;9.686;2023-05-07T03:15:55;96696.00;;;18.80
56286;BMP180;42191;47.562;9.686;2023-05-07T03:18:21;96696.00;;;18.80
56286;BMP180;42191;47.562;9.686;2023-05-07T03:20:48;96697.00;;;18.70
56286;BMP180;42191;47.562;9.686;2023-05-07T03:23:14;96690.00;;;18.70
56286;BMP180;42191;47.562;9.686;2023-05-07T03:25:40;96701.00;;;18.70
56286;BMP180;42191;47.562;9.686;2023-05-07T03:28:06;96691.00;;;18.70
56286;BMP180;42191;47.562;9.686;2023-05-07T03:30:33;96690.00;;;18.60
56286;BMP180;42191;47.562;9.686;2023-05-07T03:32:59;96701.00;;;18.60
56286;BMP180;42191;47.562;9.686;2023-05-07T03:35:25;96699.00;;;18.60
56286;BMP180;42191;47.562;9.686;2023-05-07T03:37:51;96699.00;;;18.50
56286;BMP180;42191;47.562;9.686;2023-05-07T03:40:18;96696.00;;;18.50
56286;BMP180;42191;47.562;9.686;2023-05-07T03:42:44;96701.00;;;18.50
56286;BMP180;42191;47.562;9.686;2023-05-07T03:45:10;96701.00;;;18.40
56286;BMP180;42191;47.562;9.686;2023-05-07T03:47:36;96698.00;;;18.40
56286;BMP180;42191;47.562;9.686;2023-05-07T03:50:02;96699.00;;;18.40
56286;BMP180;42191;47.562;9.686;2023-05-07T03:52:29;96701.00;;;18.30
56286;BMP180;42191;47.562;9.686;2023-05-07T03:54:55;96716.00;;;18.30
56286;BMP180;42191;47.562;9.686;2023-05-07T03:57:21;96711.00;;;18.30
56286;BMP180;42191;47.562;9.686;2023-05-07T03:59:47;96719.00;;;18.30
56286;BMP180;42191;47.562;9.686;2023-05-07T04:02:13;96716.00;;;18.20
56286;BMP180;42191;47.562;9.686;2023-05-07T04:04:39;96712.00;;;18.20
56286;BMP180;42191;47.562;9.686;2023-05-07T04:07:06;96714.00;;;18.20
56286;BMP180;42191;47.562;9.686;2023-05-07T04:09:33;96715.00;;;18.20
56286;BMP180;42191;47.562;9.686;2023-05-07T04:11:59;96710.00;;;18.10
56286;BMP180;42191;47.562;9.686;2023-05-07T04:14:25;96716.00;;;18.10
56286;BMP180;42191;47.562;9.686;2023-05-07T04:16:51;96718.00;;;18.10
56286;BMP180;42191;47.562;9.686;2023-05-07T04:19:17;96725.00;;;18.20
56286;BMP180;42191;47.562;9.686;2023-05-07T04:21:44;96723.00;;;18.10
56286;BMP180;42191;47.562;9.686;2023-05-07T04:24:10;96727.00;;;18.10
56286;BMP180;42191;47.562;9.686;2023-05-07T04:26:36;96723.00;;;18.20
56286;BMP180;42191;47.562;9.686;2023-05-07T04:29:02;96723.00;;;18.20
56286;BMP180;42191;47.562;9.686;2023-05-07T04:31:28;96723.00;;;18.20
56286;BMP180;42191;47.562;9.686;2023-05-07T04:33:54;96719.00;;;18.20
56286;BMP180;42191;47.562;9.686;2023-05-07T04:36:21;96731.00;;;18.20
56286;BMP180;42191;47.562;9.686;2023-05-07T04:38:47;96727.00;;;18.20
56286;BMP180;42191;47.562;9.686;2023-05-07T04:41:13;96735.00;;;18.20
56286;BMP180;42191;47.562;9.686;2023-05-07T04:43:39;96739.00;;;18.20
56286;BMP180;42191;47.562;9.686;2023-05-07T04:46:06;96733.00;;;18.20
56286;BMP180;42191;47.562;9.686;2023-05-07T04:48:32;96724.00;;;18.20
56286;BMP180;42191;47.562;9.686;2023-05-07T04:50:58;96729.00;;;18.30
56286;BMP180;42191;47.562;9.686;2023-05-07T04:53:24;96740.00;;;18.40
56286;BMP180;42191;47.562;9.686;2023-05-07T04:55:56;96742.00;;;18.40
56286;BMP180;42191;47.562;9.686;2023-05-07T04:58:23;96743.00;;;18.40
56286;BMP180;42191;47.562;9.686;2023-05-07T05:00:49;96732.00;;;18.50
56286;BMP180;42191;47.562;9.686;2023-05-07T05:03:15;96739.00;;;18.50
56286;BMP180;42191;47.562;9.686;2023-05-07T05:05:42;96741.00;;;18.60
56286;BMP180;42191;47.562;9.686;2023-05-07T05:08:08;96751.00;;;18.60
56286;BMP180;42191;47.562;9.686;2023-05-07T05:10:34;96757.00;;;18.60
56286;BMP180;42191;47.562;9.686;2023-05-07T05:13:00;96751.00;;;18.70
56286;BMP180;42191;47.562;9.686;2023-05-07T05:15:26;96754.00;;;18.80
56286;BMP180;42191;47.562;9.686;2023-05-07T05:17:52;96761.00;;;18.80
56286;BMP180;42191;47.562;9.686;2023-05-07T05:20:18;96755.00;;;18.90
56286;BMP180;42191;47.562;9.686;2023-05-07T05:22:45;96754.00;;;19.00
56286;BMP180;42191;47.562;9.686;2023-05-07T05:25:11;96764.00;;;19.00
56286;BMP180;42191;47.562;9.686;2023-05-07T05:27:37;96764.00;;;19.10
56286;BMP180;42191;47.562;9.686;2023-05-07T05:30:04;96762.00;;;19.20
56286;BMP180;42191;47.562;9.686;2023-05-07T05:32:31;96777.00;;;19.20
56286;BMP180;42191;47.562;9.686;2023-05-07T05:34:57;96775.00;;;19.20
56286;BMP180;42191;47.562;9.686;2023-05-07T05:37:23;96775.00;;;19.30
56286;BMP180;42191;47.562;9.686;2023-05-07T05:39:49;96772.00;;;19.40
56286;BMP180;42191;47.562;9.686;2023-05-07T05:42:15;96771.00;;;19.40
56286;BMP180;42191;47.562;9.686;2023-05-07T05:44:41;96776.00;;;19.50
56286;BMP180;42191;47.562;9.686;2023-05-07T05:47:08;96774.00;;;19.50
56286;BMP180;42191;47.562;9.686;2023-05-07T05:49:34;96774.00;;;19.60
56286;BMP180;42191;47.562;9.686;2023-05-07T05:52:00;96771.00;;;19.60
56286;BMP180;42191;47.562;9.686;2023-05-07T05:54:27;96777.00;;;19.70
56286;BMP180;42191;47.562;9.686;2023-05-07T05:56:53;96776.00;;;19.70
56286;BMP180;42191;47.562;9.686;2023-05-07T05:59:19;96778.00;;;19.80
56286;BMP180;42191;47.562;9.686;2023-05-07T06:01:45;96773.00;;;19.80
56286;BMP180;42191;47.562;9.686;2023-05-07T06:04:11;96773.00;;;19.80
56286;BMP180;42191;47.562;9.686;2023-05-07T06:06:37;96770.00;;;19.80
56286;BMP180;42191;47.562;9.686;2023-05-07T06:09:03;96777.00;;;19.90
56286;BMP180;42191;47.562;9.686;2023-05-07T06:11:29;96763.00;;;19.90
56286;BMP180;42191;47.562;9.686;2023-05-07T06:13:57;96768.00;;;19.90
56286;BMP180;42191;47.562;9.686;2023-05-07T06:16:24;96777.00;;;19.90
56286;BMP180;42191;47.562;9.686;2023-05-07T06:18:50;96766.00;;;19.90
56286;BMP180;42191;47.562;9.686;2023-05-07T06:21:16;96769.00;;;19.90
56286;BMP180;42191;47.562;9.686;2023-05-07T06:23:42;96765.00;;;20.00
56286;BMP180;42191;47.562;9.686;2023-05-07T06:26:08;96763.00;;;20.10
56286;BMP180;42191;47.562;9.686;2023-05-07T06:28:35;96767.00;;;20.10
56286;BMP180;42191;47.562;9.686;2023-05-07T06:31:13;96769.00;;;20.20
56286;BMP180;42191;47.562;9.686;2023-05-07T06:33:40;96775.00;;;20.20
56286;BMP180;42191;47.562;9.686;2023-05-07T06:36:06;96780.00;;;20.30
56286;BMP180;42191;47.562;9.686;2023-05-07T06:38:32;96778.00;;;20.30
56286;BMP180;42191;47.562;9.686;2023-05-07T06:40:59;96781.00;;;20.30
56286;BMP180;42191;47.562;9.686;2023-05-07T06:43:25;96780.00;;;20.40
56286;BMP180;42191;47.562;9.686;2023-05-07T06:45:51;96774.00;;;20.40
56286;BMP180;42191;47.562;9.686;2023-05-07T06:48:17;96778.00;;;20.50
56286;BMP180;42191;47.562;9.686;2023-05-07T06:50:43;96782.00;;;20.60
56286;BMP180;42191;47.562;9.686;2023-05-07T06:53:09;96782.00;;;20.60
56286;BMP180;42191;47.562;9.686;2023-05-07T06:55:35;96791.00;;;20.70
56286;BMP180;42191;47.562;9.686;2023-05-07T06:58:04;96790.00;;;20.70
56286;BMP180;42191;47.562;9.686;2023-05-07T07:00:30;96786.00;;;20.80
56286;BMP180;42191;47.562;9.686;2023-05-07T07:02:56;96800.00;;;20.90
56286;BMP180;42191;47.562;9.686;2023-05-07T07:05:22;96795.00;;;20.90
56286;BMP180;42191;47.562;9.686;2023-05-07T07:07:48;96811.00;;;21.00
56286;BMP180;42191;47.562;9.686;2023-05-07T07:10:22;96801.00;;;21.00
56286;BMP180;42191;47.562;9.686;2023-05-07T07:12:49;96805.00;;;21.10
56286;BMP180;42191;47.562;9.686;2023-05-07T07:15:16;96813.00;;;21.20
56286;BMP180;42191;47.562;9.686;2023-05-07T07:17:42;96811.00;;;21.30
56286;BMP180;42191;47.562;9.686;2023-05-07T07:20:08;96812.00;;;21.30
56286;BMP180;42191;47.562;9.686;2023-05-07T07:22:34;96808.00;;;21.40
56286;BMP180;42191;47.562;9.686;2023-05-07T07:25:01;96818.00;;;21.40
56286;BMP180;42191;47.562;9.686;2023-05-07T07:27:27;96816.00;;;21.50
56286;BMP180;42191;47.562;9.686;2023-05-07T07:29:53;96815.00;;;21.60
56286;BMP180;42191;47.562;9.686;2023-05-07T07:32:19;96815.00;;;21.60
56286;BMP180;42191;47.562;9.686;2023-05-07T07:34:45;96822.00;;;21.70
56286;BMP180;42191;47.562;9.686;2023-05-07T07:37:11;96823.00;;;21.70
56286;BMP180;42191;47.562;9.686;2023-05-07T07:39:38;96817.00;;;21.80
56286;BMP180;42191;47.562;9.686;2023-05-07T07:42:04;96830.00;;;21.90
56286;BMP180;42191;47.562;9.686;2023-05-07T07:44:30;96811.00;;;22.00
56286;BMP180;42191;47.562;9.686;2023-05-07T07:46:56;96825.00;;;22.10
56286;BMP180;42191;47.562;9.686;2023-05-07T07:49:22;96825.00;;;22.20
56286;BMP180;42191;47.562;9.686;2023-05-07T07:51:48;96826.00;;;22.30
56286;BMP180;42191;47.562;9.686;2023-05-07T07:54:14;96825.00;;;22.30
56286;BMP180;42191;47.562;9.686;2023-05-07T07:56:40;96818.00;;;22.40
56286;BMP180;42191;47.562;9.686;2023-05-07T07:59:06;96828.00;;;22.40
56286;BMP180;42191;47.562;9.686;2023-05-07T08:01:33;96829.00;;;22.50
56286;BMP180;42191;47.562;9.686;2023-05-07T08:03:59;96834.00;;;22.50
56286;BMP180;42191;47.562;9.686;2023-05-07T08:06:25;96844.00;;;22.50
56286;BMP180;42191;47.562;9.686;2023-05-07T08:08:52;96846.00;;;22.50
56286;BMP180;42191;47.562;9.686;2023-05-07T08:11:19;96848.00;;;22.50
56286;BMP180;42191;47.562;9.686;2023-05-07T08:13:46;96840.00;;;22.50
56286;BMP180;42191;47.562;9.686;2023-05-07T08:16:13;96842.00;;;22.60
56286;BMP180;42191;47.562;9.686;2023-05-07T08:18:39;96849.00;;;22.60
56286;BMP180;42191;47.562;9.686;2023-05-07T08:21:05;96840.00;;;22.60
56286;BMP180;42191;47.562;9.686;2023-05-07T08:23:31;96852.00;;;22.70
56286;BMP180;42191;47.562;9.686;2023-05-07T08:25:57;96851.00;;;22.80
56286;BMP180;42191;47.562;9.686;2023-05-07T08:28:24;96857.00;;;22.80
56286;BMP180;42191;47.562;9.686;2023-05-07T08:30:50;96859.00;;;22.80
56286;BMP180;42191;47.562;9.686;2023-05-07T08:33:17;96853.00;;;22.90
56286;BMP180;42191;47.562;9.686;2023-05-07T08:35:43;96852.00;;;23.00
56286;BMP180;42191;47.562;9.686;2023-05-07T08:38:09;96865.00;;;23.10
56286;BMP180;42191;47.562;9.686;2023-05-07T08:40:39;96853.00;;;23.20
56286;BMP180;42191;47.562;9.686;2023-05-07T08:43:07;96854.00;;;23.20
56286;BMP180;42191;47.562;9.686;2023-05-07T08:45:34;96858.00;;;23.40
56286;BMP180;42191;47.562;9.686;2023-05-07T08:48:03;96855.00;;;23.50
56286;BMP180;42191;47.562;9.686;2023-05-07T08:50:31;96863.00;;;23.60
56286;BMP180;42191;47.562;9.686;2023-05-07T08:52:57;96864.00;;;23.70
56286;BMP180;42191;47.562;9.686;2023-05-07T08:55:24;96868.00;;;23.70
56286;BMP180;42191;47.562;9.686;2023-05-07T08:57:51;96871.00;;;23.80
56286;BMP180;42191;47.562;9.686;2023-05-07T09:00:18;96869.00;;;24.00
56286;BMP180;42191;47.562;9.686;2023-05-07T09:02:45;96864.00;;;24.10
56286;BMP180;42191;47.562;9.686;2023-05-07T09:05:11;96859.00;;;24.20
56286;BMP180;42191;47.562;9.686;2023-05-07T09:07:37;96855.00;;;24.30
56286;BMP180;42191;47.562;9.686;2023-05-07T09:10:04;96866.00;;;24.30
56286;BMP180;42191;47.562;9.686;2023-05-07T09:12:31;96862.00;;;24.40
56286;BMP180;42191;47.562;9.686;2023-05-07T09:14:58;96867.00;;;24.50
56286;BMP180;42191;47.562;9.686;2023-05-07T09:17:24;96864.00;;;24.50
56286;BMP180;42191;47.562;9.686;2023-05-07T09:19:50;96875.00;;;24.50
56286;BMP180;42191;47.562;9.686;2023-05-07T09:22:16;96880.00;;;24.50
56286;BMP180;42191;47.562;9.686;2023-05-07T09:24:48;96872.00;;;24.50
56286;BMP180;42191;47.562;9.686;2023-05-07T09:27:15;96868.00;;;24.50
56286;BMP180;42191;47.562;9.686;2023-05-07T09:29:41;96871.00;;;24.60
56286;BMP180;42191;47.562;9.686;2023-05-07T09:32:08;96866.00;;;24.70
56286;BMP180;42191;47.562;9.686;2023-05-07T09:34:35;96869.00;;;24.80
56286;BMP180;42191;47.562;9.686;2023-05-07T09:37:06;96869.00;;;24.90
56286;BMP180;42191;47.562;9.686;2023-05-07T09:42:06;96867.00;;;25.10
56286;BMP180;42191;47.562;9.686;2023-05-07T09:44:34;96871.00;;;25.20
56286;BMP180;42191;47.562;9.686;2023-05-07T09:47:00;96868.00;;;25.30
56286;BMP180;42191;47.562;9.686;2023-05-07T09:49:29;96868.00;;;25.40
56286;BMP180;42191;47.562;9.686;2023-05-07T09:51:56;96872.00;;;25.50
56286;BMP180;42191;47.562;9.686;2023-05-07T09:54:24;96866.00;;;25.60
56286;BMP180;42191;47.562;9.686;2023-05-07T09:56:51;96861.00;;;25.70
56286;BMP180;42191;47.562;9.686;2023-05-07T09:59:18;96856.00;;;25.70
56286;BMP180;42191;47.562;9.686;2023-05-07T10:01:45;96854.00;;;25.80
56286;BMP180;42191;47.562;9.686;2023-05-07T10:04:12;96855.00;;;25.90
56286;BMP180;42191;47.562;9.686;2023-05-07T10:06:38;96852.00;;;26.00
56286;BMP180;42191;47.562;9.686;2023-05-07T10:09:05;96858.00;;;26.00
56286;BMP180;42191;47.562;9.686;2023-05-07T10:11:37;96853.00;;;26.20
56286;BMP180;42191;47.562;9.686;2023-05-07T10:14:05;96851.00;;;26.30
56286;BMP180;42191;47.562;9.686;2023-05-07T10:16:32;96844.00;;;26.40
56286;BMP180;42191;47.562;9.686;2023-05-07T10:19:03;96849.00;;;26.50
56286;BMP180;42191;47.562;9.686;2023-05-07T10:21:30;96838.00;;;26.60
56286;BMP180;42191;47.562;9.686;2023-05-07T10:24:05;96845.00;;;26.70
56286;BMP180;42191;47.562;9.686;2023-05-07T10:26:36;96838.00;;;26.80
56286;BMP180;42191;47.562;9.686;2023-05-07T10:29:16;96844.00;;;27.00
56286;BMP180;42191;47.562;9.686;2023-05-07T10:31:48;96828.00;;;27.10
56286;BMP180;42191;47.562;9.686;2023-05-07T10:34:21;96831.00;;;27.20
56286;BMP180;42191;47.562;9.686;2023-05-07T10:36:49;96826.00;;;27.40
56286;BMP180;42191;47.562;9.686;2023-05-07T10:39:16;96826.00;;;27.50
56286;BMP180;42191;47.562;9.686;2023-05-07T10:41:42;96822.00;;;27.60
56286;BMP180;42191;47.562;9.686;2023-05-07T10:44:08;96824.00;;;27.80
56286;BMP180;42191;47.562;9.686;2023-05-07T10:46:34;96817.00;;;27.90
56286;BMP180;42191;47.562;9.686;2023-05-07T10:51:32;96808.00;;;28.10
56286;BMP180;42191;47.562;9.686;2023-05-07T11:02:02;96808.00;;;28.40
56286;BMP180;42191;47.562;9.686;2023-05-07T11:04:30;96796.00;;;28.50
56286;BMP180;42191;47.562;9.686;2023-05-07T11:12:45;96790.00;;;28.80
56286;BMP180;42191;47.562;9.686;2023-05-07T11:15:11;96785.00;;;29.00
56286;BMP180;42191;47.562;9.686;2023-05-07T11:17:54;96780.00;;;29.10
56286;BMP180;42191;47.562;9.686;2023-05-07T11:20:43;96781.00;;;29.20
56286;BMP180;42191;47.562;9.686;2023-05-07T11:23:45;96773.00;;;29.30
56286;BMP180;42191;47.562;9.686;2023-05-07T11:26:14;96770.00;;;29.40
56286;BMP180;42191;47.562;9.686;2023-05-07T11:28:42;96764.00;;;29.40
56286;BMP180;42191;47.562;9.686;2023-05-07T11:31:09;96763.00;;;29.40
56286;BMP180;42191;47.562;9.686;2023-05-07T11:33:37;96765.00;;;29.40
56286;BMP180;42191;47.562;9.686;2023-05-07T11:36:04;96758.00;;;29.30
56286;BMP180;42191;47.562;9.686;2023-05-07T11:38:33;96756.00;;;29.30
56286;BMP180;42191;47.562;9.686;2023-05-07T11:41:00;96760.00;;;29.30
56286;BMP180;42191;47.562;9.686;2023-05-07T11:43:27;96765.00;;;29.30
56286;BMP180;42191;47.562;9.686;2023-05-07T11:45:54;96759.00;;;29.20
56286;BMP180;42191;47.562;9.686;2023-05-07T11:48:21;96762.00;;;29.20
56286;BMP180;42191;47.562;9.686;2023-05-07T11:50:52;96754.00;;;29.20
56286;BMP180;42191;47.562;9.686;2023-05-07T11:53:19;96765.00;;;29.20
56286;BMP180;42191;47.562;9.686;2023-05-07T11:55:46;96752.00;;;29.20
56286;BMP180;42191;47.562;9.686;2023-05-07T11:58:18;96756.00;;;29.30
56286;BMP180;42191;47.562;9.686;2023-05-07T12:00:50;96764.00;;;29.40
56286;BMP180;42191;47.562;9.686;2023-05-07T12:03:16;96748.00;;;29.50
56286;BMP180;42191;47.562;9.686;2023-05-07T12:05:46;96758.00;;;29.60
56286;BMP180;42191;47.562;9.686;2023-05-07T12:08:21;96759.00;;;29.70
56286;BMP180;42191;47.562;9.686;2023-05-07T12:10:49;96751.00;;;29.70
56286;BMP180;42191;47.562;9.686;2023-05-07T12:13:23;96755.00;;;29.90
56286;BMP180;42191;47.562;9.686;2023-05-07T12:15:53;96748.00;;;29.90
56286;BMP180;42191;47.562;9.686;2023-05-07T12:18:20;96741.00;;;30.00
56286;BMP180;42191;47.562;9.686;2023-05-07T12:20:47;96745.00;;;30.00
56286;BMP180;42191;47.562;9.686;2023-05-07T12:23:14;96745.00;;;30.10
56286;BMP180;42191;47.562;9.686;2023-05-07T12:25:42;96748.00;;;30.10
56286;BMP180;42191;47.562;9.686;2023-05-07T12:28:16;96739.00;;;30.10
56286;BMP180;42191;47.562;9.686;2023-05-07T12:30:44;96728.00;;;30.20
56286;BMP180;42191;47.562;9.686;2023-05-07T12:33:11;96727.00;;;30.30
56286;BMP180;42191;47.562;9.686;2023-05-07T12:35:40;96731.00;;;30.30
56286;BMP180;42191;47.562;9.686;2023-05-07T12:38:11;96729.00;;;30.30
56286;BMP180;42191;47.562;9.686;2023-05-07T12:40:40;96726.00;;;30.40
56286;BMP180;42191;47.562;9.686;2023-05-07T12:43:06;96722.00;;;30.40
56286;BMP180;42191;47.562;9.686;2023-05-07T12:45:37;96727.00;;;30.40
56286;BMP180;42191;47.562;9.686;2023-05-07T12:48:04;96718.00;;;30.40
56286;BMP180;42191;47.562;9.686;2023-05-07T12:50:34;96719.00;;;30.40
56286;BMP180;42191;47.562;9.686;2023-05-07T12:53:00;96721.00;;;30.40
56286;BMP180;42191;47.562;9.686;2023-05-07T12:55:31;96718.00;;;30.40
56286;BMP180;42191;47.562;9.686;2023-05-07T12:58:01;96712.00;;;30.40
56286;BMP180;42191;47.562;9.686;2023-05-07T13:00:35;96710.00;;;30.40
56286;BMP180;42191;47.562;9.686;2023-05-07T13:03:02;96709.00;;;30.30
56286;BMP180;42191;47.562;9.686;2023-05-07T13:05:28;96704.00;;;30.20
56286;BMP180;42191;47.562;9.686;2023-05-07T13:07:55;96698.00;;;30.20
56286;BMP180;42191;47.562;9.686;2023-05-07T13:10:22;96695.00;;;30.30
56286;BMP180;42191;47.562;9.686;2023-05-07T13:12:49;96687.00;;;30.50
56286;BMP180;42191;47.562;9.686;2023-05-07T13:15:16;96687.00;;;30.80
56286;BMP180;42191;47.562;9.686;2023-05-07T13:17:42;96685.00;;;31.10
56286;BMP180;42191;47.562;9.686;2023-05-07T13:20:11;96686.00;;;31.40
56286;BMP180;42191;47.562;9.686;2023-05-07T13:22:39;96672.00;;;31.70
56286;BMP180;42191;47.562;9.686;2023-05-07T13:25:06;96673.00;;;32.10
56286;BMP180;42191;47.562;9.686;2023-05-07T13:27:32;96674.00;;;32.50
56286;BMP180;42191;47.562;9.686;2023-05-07T13:30:01;96665.00;;;32.90
56286;BMP180;42191;47.562;9.686;2023-05-07T13:32:27;96674.00;;;33.30
56286;BMP180;42191;47.562;9.686;2023-05-07T13:34:53;96669.00;;;33.70
56286;BMP180;42191;47.562;9.686;2023-05-07T13:37:19;96669.00;;;34.10
56286;BMP180;42191;47.562;9.686;2023-05-07T13:39:46;96669.00;;;34.50
56286;BMP180;42191;47.562;9.686;2023-05-07T13:42:12;96668.00;;;34.90
56286;BMP180;42191;47.562;9.686;2023-05-07T13:44:38;96666.00;;;35.20
56286;BMP180;42191;47.562;9.686;2023-05-07T13:47:04;96665.00;;;35.50
56286;BMP180;42191;47.562;9.686;2023-05-07T13:49:30;96651.00;;;35.80
56286;BMP180;42191;47.562;9.686;2023-05-07T13:51:56;96672.00;;;36.20
56286;BMP180;42191;47.562;9.686;2023-05-07T13:54:22;96664.00;;;36.40
56286;BMP180;42191;47.562;9.686;2023-05-07T13:56:49;96667.00;;;36.40
56286;BMP180;42191;47.562;9.686;2023-05-07T13:59:15;96663.00;;;36.30
56286;BMP180;42191;47.562;9.686;2023-05-07T14:01:41;96659.00;;;36.10
56286;BMP180;42191;47.562;9.686;2023-05-07T14:04:07;96656.00;;;35.70
56286;BMP180;42191;47.562;9.686;2023-05-07T14:06:33;96664.00;;;35.30
56286;BMP180;42191;47.562;9.686;2023-05-07T14:08:59;96658.00;;;34.80
56286;BMP180;42191;47.562;9.686;2023-05-07T14:11:26;96646.00;;;34.20
56286;BMP180;42191;47.562;9.686;2023-05-07T14:13:52;96647.00;;;33.70
56286;BMP180;42191;47.562;9.686;2023-05-07T14:16:18;96648.00;;;33.20
56286;BMP180;42191;47.562;9.686;2023-05-07T14:18:44;96652.00;;;32.80
56286;BMP180;42191;47.562;9.686;2023-05-07T14:21:10;96648.00;;;32.40
56286;BMP180;42191;47.562;9.686;2023-05-07T14:23:36;96650.00;;;32.00
56286;BMP180;42191;47.562;9.686;2023-05-07T14:26:02;96653.00;;;31.70